Observations for ROME FIUMICINO, Italy (LIRF)

LIRF 201950Z 32005KT CAVOK 08/05 Q1025 NOSIG
LIRF 201920Z 34004KT CAVOK 09/05 Q1025 NOSIG
LIRF 201850Z 31005KT CAVOK 10/06 Q1025 NOSIG
LIRF 201820Z 31006KT CAVOK 10/06 Q1025 NOSIG
LIRF 201750Z 30006KT CAVOK 11/05 Q1024 NOSIG
LIRF 201720Z 29006KT CAVOK 11/05 Q1024 NOSIG
LIRF 201650Z 30006KT CAVOK 12/05 Q1024 NOSIG
LIRF 201620Z 29007KT CAVOK 13/05 Q1024 NOSIG
LIRF 201550Z 29008KT CAVOK 13/05 Q1024 NOSIG
LIRF 201520Z 27009KT CAVOK 13/05 Q1024 NOSIG
LIRF 201450Z 27008KT 240V300 CAVOK 13/05 Q1024 NOSIG
LIRF 201420Z 26008KT 230V290 CAVOK 13/06 Q1024 NOSIG
LIRF 201350Z 25009KT CAVOK 14/06 Q1024 NOSIG
LIRF 201320Z 26010KT 9999 FEW045 14/05 Q1024 NOSIG  
LIRF 201250Z 27008KT 250V310 9999 FEW040 14/04 Q1024 NOSIG  
LIRF 201220Z VRB02KT 9999 FEW040 15/04 Q1024 NOSIG  
LIRF 201150Z 31005KT 230V040 9999 FEW040 14/04 Q1024 NOSIG  
LIRF 201120Z VRB04KT CAVOK 14/04 Q1025 NOSIG
LIRF 201050Z 04006KT 360V090 CAVOK 13/04 Q1025 NOSIG
LIRF 201020Z 06007KT 020V090 CAVOK 12/04 Q1025 NOSIG
LIRF 200950Z 06006KT 030V090 CAVOK 11/04 Q1025 NOSIG
LIRF 200920Z 07005KT 040V100 CAVOK 10/04 Q1025 NOSIG
LIRF 200850Z 07004KT 040V130 9000 NSC 10/05 Q1025 NOSIG 
LIRF 200820Z 07006KT 8000 NSC 08/04 Q1025 NOSIG 
LIRF 200750Z 07006KT 8000 NSC 06/04 Q1025 NOSIG 
LIRF 200720Z 07006KT 8000 FEW045 06/03 Q1025 NOSIG  
LIRF 200650Z 09006KT 9999 SCT045 04/03 Q1024 NOSIG  
LIRF 200620Z 09007KT 9999 SCT045 04/03 Q1024 NOSIG  
LIRF 200550Z 08006KT 7000 SCT043 04/02 Q1023 NOSIG  
LIRF 200520Z 08004KT 7000 SCT043 04/02 Q1023 NOSIG  
LIRF 200450Z 09006KT 7000 SCT042 04/02 Q1023 NOSIG  
LIRF 200420Z 06006KT 7000 SCT040 04/02 Q1023 NOSIG  
LIRF 200350Z 06003KT 7000 BKN040 04/03 Q1024 NOSIG  
LIRF 200320Z 07004KT 7000 BKN040 04/03 Q1023 NOSIG  
LIRF 200250Z 07005KT 7000 BKN040 03/02 Q1024 NOSIG  
LIRF 200220Z 08003KT 7000 BKN040 03/02 Q1024 NOSIG  
LIRF 200150Z 09002KT 7000 SCT040 03/01 Q1024 NOSIG  
LIRF 200120Z 09004KT 8000 NSC 03/01 Q1024 NOSIG 
LIRF 200050Z 09004KT 9000 NSC 03/01 Q1024 NOSIG 
LIRF 200020Z 08003KT 9000 NSC 03/02 Q1024 NOSIG 
LIRF 192350Z 09004KT 9000 NSC 03/02 Q1024 NOSIG 
LIRF 192320Z 08004KT CAVOK 03/02 Q1024 NOSIG
LIRF 192250Z 09003KT CAVOK 04/02 Q1024 NOSIG
LIRF 192220Z 09003KT CAVOK 04/02 Q1024 NOSIG
LIRF 192150Z VRB02KT CAVOK 04/02 Q1024 NOSIG
LIRF 192120Z 36002KT CAVOK 03/02 Q1024 NOSIG
LIRF 192050Z VRB01KT 9999 FEW043 05/02 Q1024 NOSIG  
LIRF 192020Z 05002KT CAVOK 06/03 Q1024 NOSIG
LIRF 191950Z 03002KT CAVOK 06/03 Q1023 NOSIG
LIRF 191920Z 01002KT CAVOK 06/03 Q1023 NOSIG